Atlanta, Georgia
Traffic Map
Current Weather Conditions
Atlanta, Georgia
Clear
Clear
22°
Feels Like: 22°
Wind Chill: 22° Ceiling: Unl
Heat Index: 22° Visibility: 10mi
Dew Point: 12° Wind: 10mph
Humidity: 55% Direction: 340° (NNW)
Pressure: 30.03in Gusts: 0mph
Raw Report DataKATL 300252Z 34009KT 10SM CLR 22/12 A3003 RMK AO2 SLP160 T02170122 51010
Traffic Incident Summary
Active as of:
Severity:
Category:
InformationThere was an issue retrieving the traffic information for this location. Please try a different location or try again shortly.
Advertisements
Track Severe Weather on mobile